Time;durP1;ratioP1;P1;durP2;ratioP2;P2;SDS_P1;SDS_P2;PMS_P1;PMS_P2;Temp;Humidity;BMP_temperature;BMP_pressure;BME280_temperature;BME280_humidity;BME280_pressure;Samples;Min_cycle;Max_cycle;Signal;HPM_P1;HPM_P2
2022/03/21 00:02:09;;;;;;;;;60.00;45.00;;;;;15.83;39.01;102334.31;5067870;28;62024;-88
2022/03/21 00:04:34;;;;;;;;;57.25;45.25;;;;;15.82;38.94;102332.47;5084580;27;63656;-89
2022/03/21 00:07:00;;;;;;;;;61.25;48.50;;;;;15.78;39.05;102330.53;5086503;28;61725;-87
2022/03/21 00:09:25;;;;;;;;;61.50;45.75;;;;;15.77;39.04;102334.00;5068275;28;62512;-88
2022/03/21 00:11:50;;;;;;;;;59.00;45.50;;;;;15.75;39.09;102343.63;5086437;28;61771;-87
2022/03/21 00:14:16;;;;;;;;;64.75;48.50;;;;;15.70;39.18;102335.44;5083805;27;63629;-88
2022/03/21 00:16:43;;;;;;;;;59.00;46.75;;;;;15.70;38.86;102343.38;5069519;28;62183;-87
2022/03/21 00:19:09;;;;;;;;;57.25;44.25;;;;;15.68;39.02;102341.47;5069775;28;62222;-89
2022/03/21 00:21:35;;;;;;;;;57.50;46.00;;;;;15.66;39.27;102345.78;5067147;28;61790;-87
2022/03/21 00:24:01;;;;;;;;;61.75;47.75;;;;;15.63;39.16;102341.25;5066029;28;63952;-88
2022/03/21 00:26:27;;;;;;;;;58.00;44.25;;;;;15.62;38.86;102341.19;5084326;28;61962;-88
2022/03/21 00:28:53;;;;;;;;;66.75;50.75;;;;;15.60;39.25;102341.09;5086704;28;61743;-88
2022/03/21 00:31:19;;;;;;;;;64.00;50.75;;;;;15.58;39.33;102339.22;5088345;28;61757;-88
2022/03/21 00:33:44;;;;;;;;;57.50;41.50;;;;;15.54;39.50;102336.41;5094497;27;63244;-88
2022/03/21 00:36:10;;;;;;;;;70.75;46.75;;;;;15.58;39.55;102337.47;5095410;27;61415;-88
2022/03/21 00:38:41;;;;;;;;;66.25;51.00;;;;;15.52;39.44;102343.38;5096894;28;61207;-88
2022/03/21 00:41:07;;;;;;;;;64.75;49.00;;;;;15.50;39.73;102344.13;5095995;28;61879;-87
2022/03/21 00:43:36;;;;;;;;;63.75;45.25;;;;;15.48;39.64;102343.13;5077834;28;63647;-88
2022/03/21 00:46:02;;;;;;;;;67.00;50.75;;;;;15.45;39.69;102341.25;5077511;28;61824;-88
2022/03/21 00:48:29;;;;;;;;;73.25;49.00;;;;;15.45;39.95;102338.59;5095326;28;61748;-88
2022/03/21 00:50:57;;;;;;;;;68.75;48.25;;;;;15.47;40.16;102333.41;5077605;28;61291;-88
2022/03/21 00:53:22;;;;;;;;;63.00;48.50;;;;;15.41;40.24;102333.09;5090021;28;62089;-88
2022/03/21 00:55:49;;;;;;;;;64.25;48.75;;;;;15.40;40.11;102331.25;5064933;28;62242;-88
2022/03/21 00:58:16;;;;;;;;;70.75;51.00;;;;;15.37;40.36;102336.41;5064866;28;62116;-88
2022/03/21 01:00:42;;;;;;;;;59.50;43.75;;;;;15.41;40.16;102335.75;5066306;28;61978;-88
2022/03/21 01:03:08;;;;;;;;;61.75;45.50;;;;;15.33;40.62;102333.59;5065388;28;63878;-88
2022/03/21 01:05:34;;;;;;;;;59.50;47.00;;;;;15.32;40.69;102333.53;5082608;28;62262;-88
2022/03/21 01:08:02;;;;;;;;;62.75;48.25;;;;;15.30;40.66;102332.56;5084098;28;61769;-88
2022/03/21 01:10:28;;;;;;;;;64.50;45.50;;;;;15.26;40.92;102339.44;5064838;28;62114;-88
2022/03/21 01:12:54;;;;;;;;;64.00;47.25;;;;;15.23;40.83;102339.28;5080374;28;63849;-88
2022/03/21 01:15:23;;;;;;;;;74.25;52.00;;;;;15.21;40.97;102346.25;5080599;28;61926;-88
2022/03/21 01:17:49;;;;;;;;;60.50;45.25;;;;;15.20;41.26;102338.22;5064178;28;61791;-88
2022/03/21 01:20:16;;;;;;;;;68.00;48.00;;;;;15.22;41.12;102340.09;5063611;28;62147;-87
2022/03/21 01:22:42;;;;;;;;;65.25;50.00;;;;;15.17;41.11;102338.97;5063682;28;63645;-87
2022/03/21 01:25:08;;;;;;;;;63.50;49.50;;;;;15.16;41.14;102338.88;5063929;28;61764;-88
2022/03/21 01:27:35;;;;;;;;;61.25;45.75;;;;;15.12;41.17;102338.75;5080431;28;61847;-88
2022/03/21 01:30:05;;;;;;;;;68.75;50.50;;;;;15.12;41.00;102344.03;5063906;28;62112;-88
2022/03/21 01:32:32;;;;;;;;;70.00;50.75;;;;;15.11;41.27;102341.31;5063248;28;63829;-87
2022/03/21 01:34:57;;;;;;;;;62.25;49.50;;;;;15.08;41.39;102335.84;5063631;28;62085;-88
2022/03/21 01:37:23;;;;;;;;;64.75;50.00;;;;;15.06;41.40;102338.44;5064845;28;61992;-88
2022/03/21 01:39:49;;;;;;;;;60.25;44.00;;;;;15.04;41.69;102340.09;5081617;28;61775;-88
2022/03/21 01:42:14;;;;;;;;;60.50;48.00;;;;;15.03;41.75;102337.34;5081089;28;64687;-88
2022/03/21 01:44:41;;;;;;;;;59.00;47.25;;;;;15.03;42.03;102335.59;5066521;28;61883;-88
2022/03/21 01:47:06;;;;;;;;;62.00;47.75;;;;;15.07;41.83;102339.34;5085784;27;61855;-88
2022/03/21 01:49:32;;;;;;;;;57.00;43.25;;;;;15.00;41.72;102346.03;5068080;28;61921;-88
2022/03/21 01:51:57;;;;;;;;;62.75;47.25;;;;;15.01;41.90;102334.63;5086078;28;62767;-86
2022/03/21 01:57:08;;;;;;;;;66.25;45.50;;;;;15.03;42.00;102340.91;5085786;28;62018;-87
2022/03/21 01:59:34;;;;;;;;;59.50;48.50;;;;;15.07;41.88;102341.97;5085744;28;61810;-88
2022/03/21 02:01:59;;;;;;;;;57.25;42.50;;;;;15.10;42.04;102344.75;5085852;28;63134;-88
2022/03/21 02:04:25;;;;;;;;;62.25;43.00;;;;;15.21;41.75;102340.94;5085290;28;61851;-88
2022/03/21 02:06:50;;;;;;;;;64.50;48.75;;;;;15.15;41.72;102342.38;5067210;28;61821;-88
2022/03/21 02:09:16;;;;;;;;;62.25;47.75;;;;;15.15;41.97;102343.28;5084426;27;62172;-88
2022/03/21 02:11:41;;;;;;;;;58.75;45.00;;;;;15.18;41.93;102348.72;5066303;28;63245;-87
2022/03/21 02:14:09;;;;;;;;;63.75;46.00;;;;;15.17;41.63;102341.63;5066211;28;61842;-87
2022/03/21 02:20:16;;;;;;;;;67.00;49.50;;;;;15.10;41.60;102332.47;5083456;28;61985;-88
2022/03/21 02:22:53;;;;;;;;;68.75;47.75;;;;;15.06;41.57;102338.44;5084899;28;61854;-88
2022/03/21 02:25:35;;;;;;;;;61.00;46.25;;;;;15.01;41.82;102334.63;5085435;28;61880;-88
2022/03/21 02:28:08;;;;;;;;;60.00;45.50;;;;;14.98;41.99;102333.59;5083301;28;62066;-88
2022/03/21 02:30:38;;;;;;;;;67.75;46.50;;;;;15.01;41.83;102333.72;5067103;28;62144;-88
2022/03/21 02:33:05;;;;;;;;;57.25;40.50;;;;;14.92;42.18;102334.16;5065861;28;65300;-88
2022/03/21 02:35:32;;;;;;;;;59.75;43.75;;;;;14.88;42.27;102332.19;5085081;28;61890;-88
2022/03/21 02:37:59;;;;;;;;;60.75;46.00;;;;;14.87;42.37;102333.03;5067143;28;61812;-88
2022/03/21 02:40:25;;;;;;;;;62.75;46.25;;;;;14.86;42.24;102325.91;5084216;28;61960;-88
2022/03/21 02:42:50;;;;;;;;;60.00;46.25;;;;;14.87;42.68;102330.38;5066342;28;62117;-88
2022/03/21 02:45:16;;;;;;;;;50.75;43.00;;;;;14.87;42.33;102318.06;5066337;28;62140;-88
2022/03/21 02:47:42;;;;;;;;;59.50;44.50;;;;;14.84;42.50;102317.88;5066531;28;61753;-89
2022/03/21 02:50:12;;;;;;;;;66.75;50.00;;;;;14.79;42.49;102313.22;5085280;28;61806;-88
2022/03/21 02:52:39;;;;;;;;;53.50;40.75;;;;;14.75;42.65;102320.06;5084156;28;61945;-88
2022/03/21 02:55:05;;;;;;;;;59.25;43.75;;;;;14.71;43.25;102328.66;5083172;28;61914;-88
2022/03/21 02:57:32;;;;;;;;;61.50;46.25;;;;;14.69;42.72;102327.66;5082822;28;61952;-88
2022/03/21 02:59:58;;;;;;;;;59.25;43.00;;;;;14.66;42.71;102330.16;5066226;28;62076;-88
2022/03/21 03:02:24;;;;;;;;;66.75;48.75;;;;;14.64;43.21;102327.44;5082344;28;64708;-88
2022/03/21 03:04:49;;;;;;;;;69.00;49.25;;;;;14.60;43.13;102321.91;5084817;28;61929;-88
2022/03/21 03:07:16;;;;;;;;;50.25;42.25;;;;;14.59;42.98;102325.38;5083624;28;61887;-88
2022/03/21 03:09:42;;;;;;;;;61.25;46.50;;;;;14.59;42.97;102328.00;5083252;28;61889;-88
2022/03/21 03:12:10;;;;;;;;;57.00;44.75;;;;;14.57;43.07;102322.66;5084317;28;61874;-88
2022/03/21 03:14:36;;;;;;;;;56.75;41.25;;;;;14.56;43.49;102334.03;5082720;28;62216;-88
2022/03/21 03:17:02;;;;;;;;;53.00;44.00;;;;;14.51;43.32;102333.78;5065796;28;61820;-88
2022/03/21 03:19:28;;;;;;;;;59.25;44.25;;;;;14.49;43.63;102331.88;5084745;28;62152;-88
2022/03/21 03:21:55;;;;;;;;;60.25;46.00;;;;;14.49;43.15;102337.16;5065290;28;63865;-88
2022/03/21 03:24:24;;;;;;;;;67.25;51.25;;;;;14.49;43.53;102326.59;5082923;28;61909;-88
2022/03/21 03:26:50;;;;;;;;;66.75;46.25;;;;;14.54;43.05;102327.72;5083863;28;61866;-88
2022/03/21 03:29:16;;;;;;;;;59.25;44.25;;;;;14.49;43.60;102329.25;5065825;28;61699;-88
2022/03/21 03:31:41;;;;;;;;;62.25;45.25;;;;;14.48;43.51;102325.69;5065074;28;64920;-88
2022/03/21 03:34:07;;;;;;;;;61.50;49.00;;;;;14.45;43.33;102325.50;5083940;28;62065;-87
2022/03/21 03:36:32;;;;;;;;;57.50;43.75;;;;;14.46;43.68;102331.69;5084252;28;61735;-88
2022/03/21 03:38:58;;;;;;;;;60.50;45.50;;;;;14.45;43.47;102327.25;5082825;28;62198;-89
2022/03/21 03:41:24;;;;;;;;;58.75;46.25;;;;;14.45;43.94;102328.16;5082374;28;64003;-89
2022/03/21 03:43:49;;;;;;;;;57.50;44.75;;;;;14.47;43.60;102334.44;5083415;28;62359;-88
2022/03/21 03:46:17;;;;;;;;;59.50;43.75;;;;;14.49;43.65;102337.16;5082334;28;62137;-88
2022/03/21 03:48:44;;;;;;;;;55.00;42.50;;;;;14.51;43.77;102341.69;5084212;28;62053;-88
2022/03/21 03:51:11;;;;;;;;;61.50;46.25;;;;;14.55;43.69;102337.53;5065097;28;63331;-88
2022/03/21 03:53:37;;;;;;;;;56.00;43.00;;;;;14.53;43.71;102342.69;5083441;28;61807;-88
2022/03/21 03:56:02;;;;;;;;;57.25;42.00;;;;;14.59;43.66;102349.16;5065209;28;61797;-88
2022/03/21 03:58:28;;;;;;;;;48.25;42.50;;;;;14.59;43.88;102352.72;5082783;28;62253;-88
2022/03/21 04:00:54;;;;;;;;;59.50;45.00;;;;;14.60;43.51;102343.06;5064255;28;63724;-89
2022/03/21 04:06:04;;;;;;;;;56.50;40.25;;;;;14.67;43.70;102354.00;5083901;28;62261;-88
2022/03/21 04:08:30;;;;;;;;;55.25;41.50;;;;;14.71;43.69;102357.72;5064821;28;62429;-88
2022/03/21 04:10:55;;;;;;;;;62.50;46.75;;;;;14.73;43.82;102353.44;5064883;28;64532;-89
2022/03/21 04:13:20;;;;;;;;;56.50;41.25;;;;;14.76;43.34;102360.63;5065338;28;62007;-88
2022/03/21 04:15:46;;;;;;;;;61.25;46.00;;;;;14.76;43.62;102352.69;5064033;28;61808;-88
2022/03/21 04:18:11;;;;;;;;;61.50;45.00;;;;;14.78;43.50;102358.97;5065662;28;62146;-87
2022/03/21 04:20:39;;;;;;;;;63.25;50.25;;;;;14.78;43.58;102361.59;5064892;27;64853;-89
2022/03/21 04:23:05;;;;;;;;;52.75;42.50;;;;;14.80;43.39;102362.59;5065158;28;61964;-88
2022/03/21 04:25:31;;;;;;;;;58.25;45.75;;;;;14.80;43.53;102368.78;5065023;28;61922;-88
2022/03/21 04:27:56;;;;;;;;;67.00;50.50;;;;;14.83;43.60;102370.72;5083329;28;61768;-88
2022/03/21 04:30:23;;;;;;;;;58.75;45.00;;;;;14.84;43.55;102367.22;5063517;28;62184;-88
2022/03/21 04:32:49;;;;;;;;;63.75;48.75;;;;;14.87;43.35;102362.13;5083501;27;61910;-87
2022/03/21 04:35:15;;;;;;;;;61.00;43.75;;;;;14.88;43.78;102367.44;5065224;28;62084;-88
2022/03/21 04:37:41;;;;;;;;;72.50;49.50;;;;;14.89;43.67;102373.69;5064929;28;61827;-88
2022/03/21 04:40:08;;;;;;;;;69.75;46.50;;;;;14.90;43.37;102373.72;5064765;28;63671;-87
2022/03/21 04:42:38;;;;;;;;;69.75;49.25;;;;;14.92;43.25;102373.81;5082036;28;62021;-89
2022/03/21 04:45:05;;;;;;;;;56.50;41.75;;;;;14.93;43.52;102367.69;5063864;27;62077;-88
2022/03/21 04:47:31;;;;;;;;;64.50;47.00;;;;;14.96;43.80;102382.84;5065175;28;62332;-87
2022/03/21 04:49:57;;;;;;;;;64.00;42.25;;;;;14.92;43.63;102380.00;5064258;28;63752;-88
2022/03/21 04:52:23;;;;;;;;;68.50;48.75;;;;;14.91;43.81;102372.91;5064900;28;61972;-88
2022/03/21 04:54:48;;;;;;;;;58.75;46.00;;;;;14.94;43.60;102380.09;5082917;28;61951;-88
2022/03/21 04:57:14;;;;;;;;;44.00;33.50;;;;;14.95;43.88;102386.28;5082764;28;62069;-89
2022/03/21 04:59:40;;;;;;;;;61.25;45.25;;;;;14.93;43.90;102383.56;5080137;27;63694;-88
2022/03/21 05:02:06;;;;;;;;;60.50;45.00;;;;;14.97;44.14;102384.63;5064938;28;62425;-90
2022/03/21 05:04:32;;;;;;;;;58.50;47.25;;;;;14.85;44.29;102392.84;5084416;28;62127;-89
2022/03/21 05:06:58;;;;;;;;;62.50;47.25;;;;;14.87;44.20;102389.44;5065544;27;61808;-76
2022/03/21 05:09:23;;;;;;;;;62.25;46.00;;;;;14.89;44.11;102389.53;5082805;27;61938;-80
2022/03/21 05:11:49;;;;;;;;;68.75;49.50;;;;;14.93;44.21;102386.19;5063472;28;61713;-77
2022/03/21 05:14:16;;;;;;;;;70.25;50.50;;;;;14.96;43.87;102391.66;5063196;28;62049;-78
2022/03/21 05:16:41;;;;;;;;;62.75;49.25;;;;;14.96;43.89;102394.31;5063674;28;61938;-78
2022/03/21 05:19:07;;;;;;;;;60.50;47.00;;;;;14.93;43.62;102387.13;5058824;28;64634;-79
2022/03/21 05:21:32;;;;;;;;;62.50;47.00;;;;;14.93;43.80;102389.78;5070349;28;61824;-76
2022/03/21 05:32:11;;;;;;;;;55.50;41.50;;;;;14.92;44.14;102398.50;5078613;28;61958;-82
2022/03/21 05:37:20;;;;;;;;;65.00;50.25;;;;;14.94;44.37;102403.91;5074447;28;62060;-88
2022/03/21 05:42:29;;;;;;;;;58.75;45.50;;;;;14.97;44.46;102409.34;5074939;28;61940;-87
2022/03/21 05:44:55;;;;;;;;;52.00;35.75;;;;;14.99;44.07;102402.38;5081961;28;62201;-84
2022/03/21 05:47:20;;;;;;;;;66.25;46.00;;;;;15.02;44.19;102409.59;5081255;28;61920;-87
2022/03/21 05:49:46;;;;;;;;;65.25;51.25;;;;;15.03;44.17;102403.47;5079664;28;63619;-82
2022/03/21 05:52:11;;;;;;;;;64.00;47.50;;;;;15.05;44.27;102415.03;5063096;28;61888;-86
2022/03/21 05:54:37;;;;;;;;;59.75;43.00;;;;;15.06;44.28;102408.91;5063869;28;62167;-86
2022/03/21 05:57:03;;;;;;;;;63.25;51.25;;;;;15.07;44.30;102414.28;5063319;28;61836;-85
2022/03/21 06:02:12;;;;;;;;;59.00;43.25;;;;;15.10;44.46;102416.16;5081763;28;61921;-79
2022/03/21 06:04:38;;;;;;;;;60.50;45.75;;;;;15.09;44.25;102407.34;5063358;28;62158;-83
2022/03/21 06:07:04;;;;;;;;;63.75;47.50;;;;;15.10;44.14;102411.81;5063851;28;61989;-84
2022/03/21 06:09:30;;;;;;;;;54.25;43.50;;;;;15.08;44.37;102417.81;5062990;28;63927;-84
2022/03/21 06:11:58;;;;;;;;;56.75;46.25;;;;;15.06;44.10;102420.41;5063282;28;62081;-82
2022/03/21 06:14:25;;;;;;;;;59.50;42.75;;;;;15.04;44.56;102427.34;5080546;28;62061;-81
2022/03/21 06:16:50;;;;;;;;;57.00;46.25;;;;;15.04;44.58;102434.34;5081136;28;61902;-83
2022/03/21 06:19:16;;;;;;;;;59.50;43.25;;;;;15.03;44.43;102433.47;5080586;28;64666;-85
2022/03/21 06:21:42;;;;;;;;;69.50;51.75;;;;;15.02;44.61;102436.03;5063712;28;61949;-85
2022/03/21 06:24:08;;;;;;;;;64.00;47.00;;;;;15.01;44.49;102439.50;5068746;28;62045;-83
2022/03/21 06:26:34;;;;;;;;;58.00;46.00;;;;;15.01;44.57;102445.69;5060300;28;61899;-84
2022/03/21 06:28:59;;;;;;;;;62.00;46.25;;;;;15.01;44.87;102448.34;5081386;28;62037;-83
2022/03/21 06:31:25;;;;;;;;;66.75;49.00;;;;;15.06;44.51;102456.50;5084700;28;62155;-81
2022/03/21 06:33:50;;;;;;;;;64.75;48.00;;;;;15.09;44.40;102459.34;5084967;28;61951;-77
2022/03/21 06:36:19;;;;;;;;;59.25;41.50;;;;;15.09;44.58;102451.41;5075606;28;62010;-81
2022/03/21 06:38:44;;;;;;;;;59.25;46.00;;;;;15.10;44.54;102464.72;5075011;28;63391;-80
2022/03/21 06:41:10;;;;;;;;;65.50;51.25;;;;;15.11;44.90;102463.88;5048830;28;61935;-80
2022/03/21 06:43:36;;;;;;;;;62.75;46.75;;;;;15.15;44.51;102469.34;5074416;27;62720;-78
2022/03/21 06:46:01;;;;;;;;;60.25;45.25;;;;;15.15;44.79;102474.63;5081209;28;61971;-77
2022/03/21 06:48:30;;;;;;;;;60.75;47.75;;;;;15.19;44.95;102473.94;5071747;28;64127;-77
2022/03/21 06:50:55;;;;;;;;;72.25;52.00;;;;;15.24;44.90;102477.75;5084988;28;61754;-78
2022/03/21 06:53:21;;;;;;;;;67.00;48.00;;;;;15.28;45.04;102477.97;5075692;28;62025;-79
2022/03/21 06:55:48;;;;;;;;;62.00;47.75;;;;;15.36;44.47;102485.41;5083114;28;62039;-77
2022/03/21 06:58:16;;;;;;;;;62.25;47.00;;;;;15.43;44.36;102485.81;5083978;28;62996;-78
2022/03/21 07:00:43;;;;;;;;;55.25;43.75;;;;;15.49;44.46;102482.59;5080062;28;61947;-78
2022/03/21 07:03:08;;;;;;;;;66.75;47.50;;;;;15.56;44.67;102490.00;5099868;27;61898;-81
2022/03/21 07:05:37;;;;;;;;;76.00;55.50;;;;;15.63;44.49;102488.56;5084027;28;61965;-79
2022/03/21 07:08:04;;;;;;;;;85.25;57.50;;;;;15.68;44.59;102488.00;5082832;28;61812;-82
2022/03/21 07:10:32;;;;;;;;;65.50;45.50;;;;;15.75;44.28;102489.25;5083221;28;61773;-81
2022/03/21 07:13:03;;;;;;;;;73.50;50.50;;;;;15.85;44.24;102498.53;5061635;28;61855;-81
2022/03/21 07:15:29;;;;;;;;;69.25;50.00;;;;;15.92;44.01;102498.94;5079902;28;61891;-81
2022/03/21 07:17:58;;;;;;;;;72.75;54.50;;;;;16.02;43.88;102496.75;5064444;28;63208;-81
2022/03/21 07:20:25;;;;;;;;;55.50;46.00;;;;;16.11;44.16;102495.47;5064999;28;62189;-81
2022/03/21 07:22:56;;;;;;;;;70.00;52.75;;;;;16.21;43.64;102498.56;5081344;28;62001;-80
2022/03/21 07:25:22;;;;;;;;;63.75;46.00;;;;;16.29;43.72;102494.53;5066132;28;62024;-81
2022/03/21 07:27:54;;;;;;;;;62.50;46.75;;;;;16.40;43.31;102495.97;5064825;28;62188;-81
2022/03/21 07:30:20;;;;;;;;;68.00;51.25;;;;;16.45;43.39;102498.81;5084061;28;61946;-81
2022/03/21 07:32:46;;;;;;;;;65.00;49.50;;;;;16.55;43.37;102495.78;5084181;28;61862;-81
2022/03/21 07:35:15;;;;;;;;;62.00;48.00;;;;;16.65;43.38;102497.16;5084355;28;61766;-81
2022/03/21 07:37:42;;;;;;;;;61.75;46.50;;;;;16.72;43.00;102497.47;5080578;28;62028;-80
2022/03/21 07:40:11;;;;;;;;;64.00;50.25;;;;;16.85;43.10;102499.00;5100061;27;61942;-80
2022/03/21 07:42:45;;;;;;;;;67.75;50.25;;;;;17.01;42.67;102505.00;5098810;27;61903;-80
2022/03/21 07:47:57;;;;;;;;;67.50;50.75;;;;;17.26;42.61;102499.06;5083670;28;61812;-82
2022/03/21 07:50:26;;;;;;;;;58.25;46.50;;;;;17.37;42.46;102492.47;5084219;28;61830;-83
2022/03/21 07:52:53;;;;;;;;;57.00;44.75;;;;;17.48;42.33;102492.94;5083610;28;61905;-81
2022/03/21 07:55:20;;;;;;;;;68.00;50.00;;;;;17.57;42.26;102502.22;5078708;27;61916;-82
2022/03/21 07:57:46;;;;;;;;;63.75;47.50;;;;;17.67;41.88;102500.84;5043883;28;62018;-83
2022/03/21 08:00:13;;;;;;;;;71.25;52.00;;;;;17.77;41.93;102508.38;5045083;28;61926;-82
2022/03/21 08:02:39;;;;;;;;;62.00;45.75;;;;;17.83;41.70;102496.25;5062910;28;63460;-82
2022/03/21 08:05:05;;;;;;;;;63.75;48.50;;;;;17.89;41.49;102507.16;5063880;28;61796;-82
2022/03/21 08:07:32;;;;;;;;;63.00;50.00;;;;;17.99;41.96;102501.34;5074535;28;62869;-82
2022/03/21 08:09:57;;;;;;;;;69.00;49.25;;;;;18.11;41.62;102503.63;5083223;28;61923;-82
2022/03/21 08:12:23;;;;;;;;;69.50;50.50;;;;;18.18;41.69;102501.25;5081995;27;62128;-83
2022/03/21 08:14:51;;;;;;;;;67.25;46.50;;;;;18.25;41.23;102502.41;5064805;28;62030;-81
2022/03/21 08:17:18;;;;;;;;;76.75;51.00;;;;;18.32;41.25;102501.84;5070605;27;63607;-83
2022/03/21 08:19:44;;;;;;;;;67.50;52.00;;;;;18.55;41.60;102493.84;5083449;28;62160;-83
2022/03/21 08:22:09;;;;;;;;;62.75;48.00;;;;;18.86;40.71;102495.97;5083259;27;62168;-82
2022/03/21 08:24:35;;;;;;;;;66.75;49.00;;;;;19.14;39.85;102500.56;5065778;28;62086;-83
2022/03/21 08:27:01;;;;;;;;;57.50;41.00;;;;;19.38;39.89;102496.97;5076698;28;63300;-84
2022/03/21 08:29:26;;;;;;;;;67.00;50.00;;;;;19.55;39.68;102502.91;5065527;28;61972;-84
2022/03/21 08:31:51;;;;;;;;;59.25;45.75;;;;;19.65;39.87;102493.50;5065171;28;61901;-86
2022/03/21 08:34:17;;;;;;;;;59.50;45.25;;;;;19.72;39.77;102495.53;5062271;28;61851;-84
2022/03/21 08:36:43;;;;;;;;;64.25;46.75;;;;;19.83;39.15;102499.47;5081818;28;63295;-81
2022/03/21 08:39:11;;;;;;;;;61.00;44.75;;;;;19.90;38.89;102503.22;5082558;28;61784;-85
2022/03/21 08:41:38;;;;;;;;;55.50;43.50;;;;;19.92;39.17;102501.53;5073184;28;61970;-86
2022/03/21 08:44:03;;;;;;;;;54.75;43.75;;;;;19.83;39.42;102496.78;5083851;28;62093;-86
2022/03/21 08:46:29;;;;;;;;;49.75;41.50;;;;;19.81;39.47;102507.41;5080262;28;64622;-86
2022/03/21 08:51:39;;;;;;;;;48.25;36.00;;;;;20.08;38.65;102508.28;5082772;28;61699;-84
2022/03/21 08:54:05;;;;;;;;;45.00;37.75;;;;;20.30;38.67;102504.56;5082877;28;61737;-86
2022/03/21 08:56:30;;;;;;;;;53.75;41.25;;;;;20.42;38.45;102499.63;5063474;28;62948;-85
2022/03/21 08:58:56;;;;;;;;;47.25;39.00;;;;;20.51;38.08;102499.00;5082191;28;61915;-85
2022/03/21 09:01:22;;;;;;;;;44.00;38.00;;;;;20.54;37.76;102497.31;5081398;28;61857;-85
2022/03/21 09:03:49;;;;;;;;;46.75;38.00;;;;;20.63;38.00;102504.75;5081627;28;62161;-84
2022/03/21 09:06:14;;;;;;;;;52.75;37.75;;;;;20.62;37.30;102497.59;5066203;28;64907;-84
2022/03/21 09:08:42;;;;;;;;;48.75;35.25;;;;;20.66;37.75;102499.50;5082652;28;61912;-84
2022/03/21 09:11:08;;;;;;;;;41.00;36.75;;;;;20.72;37.36;102501.44;5083224;28;61958;-84
2022/03/21 09:13:33;;;;;;;;;43.75;36.25;;;;;20.95;37.04;102504.78;5083764;28;62341;-84
2022/03/21 09:15:59;;;;;;;;;41.75;35.50;;;;;21.16;37.03;102497.38;5061806;28;63796;-84
2022/03/21 09:18:24;;;;;;;;;41.00;29.50;;;;;21.30;36.44;102494.22;5082863;28;62008;-84
2022/03/21 09:20:50;;;;;;;;;45.00;35.25;;;;;21.34;36.34;102488.09;5063668;28;61867;-84
2022/03/21 09:23:16;;;;;;;;;43.25;37.50;;;;;21.32;36.08;102490.72;5065236;28;61899;-84
2022/03/21 09:25:41;;;;;;;;;45.50;35.25;;;;;21.28;36.17;102491.50;5064341;28;63639;-84
2022/03/21 09:28:08;;;;;;;;;42.75;32.50;;;;;21.24;36.44;102494.94;5064683;28;61721;-84
2022/03/21 09:30:33;;;;;;;;;31.00;31.00;;;;;21.23;36.79;102490.47;5082780;28;61737;-84
2022/03/21 09:32:59;;;;;;;;;33.50;29.75;;;;;21.22;36.46;102502.00;5065167;28;61756;-84
2022/03/21 09:35:25;;;;;;;;;38.75;32.25;;;;;21.15;36.49;102498.25;5063899;28;63614;-84
2022/03/21 09:37:50;;;;;;;;;38.00;32.00;;;;;21.10;36.95;102494.56;5083225;28;61819;-84
2022/03/21 09:40:19;;;;;;;;;33.75;29.25;;;;;21.06;36.64;102497.06;5082861;28;61960;-84
2022/03/21 09:42:45;;;;;;;;;38.25;31.00;;;;;21.00;36.83;102492.50;5064864;28;61760;-84
2022/03/21 09:45:12;;;;;;;;;40.50;29.25;;;;;20.95;36.82;102496.78;5063924;28;63739;-84
2022/03/21 09:50:28;;;;;;;;;32.00;28.00;;;;;20.80;36.94;102491.88;5083228;28;61862;-84
2022/03/21 09:52:54;;;;;;;;;45.75;32.50;;;;;20.77;37.22;102487.38;5083192;28;62138;-84
2022/03/21 09:55:19;;;;;;;;;41.75;29.00;;;;;20.78;36.98;102491.88;5064181;28;63675;-84
2022/03/21 09:57:45;;;;;;;;;33.25;28.50;;;;;20.84;36.71;102488.44;5082256;28;61858;-84
2022/03/21 10:00:12;;;;;;;;;26.00;22.00;;;;;20.78;37.04;102482.94;5082768;28;61880;-84
2022/03/21 10:02:37;;;;;;;;;30.75;25.50;;;;;20.72;36.86;102481.00;5064308;28;62177;-84
2022/03/21 10:05:03;;;;;;;;;24.00;20.00;;;;;20.74;37.31;102481.06;5082691;28;61816;-84
2022/03/21 10:07:28;;;;;;;;;27.00;23.00;;;;;20.74;37.22;102476.63;5068078;28;61947;-84
2022/03/21 10:10:08;;;;;;;;;29.00;21.25;;;;;20.85;36.90;102479.59;5067920;28;61841;-84
2022/03/21 10:12:34;;;;;;;;;22.00;20.50;;;;;20.87;36.66;102474.31;5086382;28;62154;-84
2022/03/21 10:14:59;;;;;;;;;24.75;22.50;;;;;20.82;36.66;102479.50;5077973;27;61965;-84
2022/03/21 10:17:25;;;;;;;;;27.25;22.50;;;;;20.87;36.72;102475.22;5087294;27;62065;-84
2022/03/21 10:19:52;;;;;;;;;28.50;20.00;;;;;20.95;36.71;102487.03;5088359;27;61755;-84
2022/03/21 10:22:33;;;;;;;;;22.25;21.75;;;;;21.02;36.75;102480.97;5105228;27;61921;-84
2022/03/21 10:25:07;;;;;;;;;27.00;21.25;;;;;21.11;36.43;102471.44;5106031;27;61965;-84
2022/03/21 10:27:41;;;;;;;;;22.00;20.25;;;;;21.12;36.56;102470.56;5087091;27;61921;-84
2022/03/21 10:30:22;;;;;;;;;14.25;13.25;;;;;21.19;36.27;102469.88;5087823;27;62074;-84
2022/03/21 10:32:55;;;;;;;;;16.25;13.00;;;;;21.24;36.06;102470.91;5104926;27;61825;-84
2022/03/21 10:35:24;;;;;;;;;17.00;16.25;;;;;21.30;36.56;102465.72;5106021;27;62992;-83
2022/03/21 10:37:56;;;;;;;;;16.50;14.25;;;;;21.26;36.05;102458.50;5088164;27;61734;-84
2022/03/21 10:40:45;;;;;;;;;20.75;17.25;;;;;21.34;36.16;102458.72;5105057;27;62035;-84
2022/03/21 10:43:15;;;;;;;;;26.75;18.00;;;;;21.40;36.33;102453.50;5106557;27;61807;-84
2022/03/21 10:45:49;;;;;;;;;28.25;20.00;;;;;21.44;35.85;102452.75;5103485;27;64074;-84
2022/03/21 10:48:26;;;;;;;;;27.75;24.00;;;;;21.51;35.76;102454.75;5088035;27;61831;-84
2022/03/21 10:50:54;;;;;;;;;27.75;20.50;;;;;21.58;36.38;102455.81;5087944;27;61802;-84
2022/03/21 10:53:28;;;;;;;;;22.00;20.75;;;;;21.59;35.50;102455.81;5105271;27;61922;-84
2022/03/21 10:55:53;;;;;;;;;28.50;24.25;;;;;21.68;35.80;102448.91;5104054;27;63712;-84
2022/03/21 10:58:38;;;;;;;;;32.00;25.00;;;;;21.81;35.21;102451.94;5105553;27;61770;-84
2022/03/21 11:01:17;;;;;;;;;14.25;14.00;;;;;21.99;34.90;102445.25;5086634;27;61868;-84
2022/03/21 11:03:46;;;;;;;;;20.50;15.00;;;;;22.08;35.10;102441.88;5087073;27;62070;-84
2022/03/21 11:06:12;;;;;;;;;20.00;16.25;;;;;22.25;34.57;102445.88;5086783;27;64083;-84
2022/03/21 11:08:39;;;;;;;;;19.50;14.25;;;;;22.42;34.59;102435.56;5105701;27;62055;-84
2022/03/21 11:11:05;;;;;;;;;22.25;17.25;;;;;22.51;34.40;102442.88;5104308;27;61921;-84
2022/03/21 11:13:32;;;;;;;;;18.50;10.50;;;;;22.67;34.10;102434.31;5106188;27;61716;-84
2022/03/21 11:15:59;;;;;;;;;19.50;14.75;;;;;22.82;33.82;102426.59;5103863;27;61853;-84
2022/03/21 11:18:28;;;;;;;;;18.75;18.25;;;;;23.02;33.84;102427.00;5105074;27;61782;-84
2022/03/21 11:20:56;;;;;;;;;15.75;12.25;;;;;23.09;33.39;102428.03;5105836;27;61706;-84
2022/03/21 11:23:21;;;;;;;;;16.25;14.50;;;;;23.23;33.44;102423.84;5087127;27;61781;-84
2022/03/21 11:26:08;;;;;;;;;21.00;14.50;;;;;23.40;33.44;102423.25;5086455;27;63719;-84
2022/03/21 11:29:00;;;;;;;;;20.25;14.00;;;;;23.52;33.17;102417.19;5105869;27;61746;-84
2022/03/21 11:31:56;;;;;;;;;14.25;12.00;;;;;23.70;32.37;102414.81;5086344;27;61753;-84
2022/03/21 11:34:52;;;;;;;;;12.75;12.00;;;;;23.90;32.71;102414.25;5087324;27;61850;-84
2022/03/21 11:37:29;;;;;;;;;22.50;14.50;;;;;24.04;31.63;102412.69;5104984;27;62012;-84
2022/03/21 11:40:26;;;;;;;;;11.00;9.00;;;;;24.05;32.11;102407.34;5087120;27;61821;-84
2022/03/21 11:42:53;;;;;;;;;16.00;12.25;;;;;24.25;31.72;102418.38;5086952;27;61787;-84
2022/03/21 11:45:26;;;;;;;;;10.50;8.50;;;;;24.40;31.39;102408.69;5086133;27;61792;-84